Kingsville Naval Air Station
KNQI : rendu visible

Aérodrome :











RETROUVEZ-NOUS SUR...

 
LOGIN :

S'inscrire | Disclaimer

   EN    FR    IT 

 









Légende :    VFR   VFR Marginal   IFR   IFR Intensif   IFR Très Intensif
Visi : 
Plafond : 
>= 8 km
>= 3000ft
5 à 8 km
1000 à 3000 ft
1500m à 5 km
500 à 1000 ft
800 à 1500m
200 à 500 ft
< 800m
< 200 ft
Symboles :   Orages  Brouillard  Fortes neiges  Fortes précipitations  Vent > 20 kt






- Altitude de l'aérodrome : 50 ft


KNQI - Kingsville Naval Air Station

DERNIER METAR :
  • 290556Z AUTO 03005KT 10SM OVC030 22/10 A2998 RMK AO2 SLP147 T02220100 10256 20217 403110217 51010

METARs EXPIRÉS :
  • 290546Z AUTO 04005KT 10SM OVC030 22/09 A2997 RMK AO2 T02220094
  • 290528Z AUTO 02005KT 10SM OVC029 22/09 A2998 RMK AO2 T02220094
  • 290456Z AUTO 03006KT 10SM BKN030 22/09 A2997 RMK AO2 SLP145 T02220089
  • 290356Z AUTO 02008KT 10SM BKN030 OVC045 23/09 A2997 RMK AO2 SLP144 T02280089

TAF TAF KNQI
Valide du 28 à 23h jusqu'au 29 à 23h UTC


2823/2923 36013KT 9999 SKC QNH2977INS
BECMG 2904/2906 02010KT 9999 SKC QNH2987INS AUTOMATED SENSOR METWATCH 2823 TIL 2920 T16/2912Z T29/2921Z FN00205



MET'MAP, la Météo Aéronautique d'un coup d'oeil ! - Copyright ORBIFLY Décembre 2007 - Disclaimer

ORBIFLY MET'MAP TEAM :

Programmation & Développement : Alexandra Zaïnal
Sur une idée originale de : Baudouin d'Aumeries
Assistance à la programmation : Marc-Olivier Méhu
Soutien technique & logistique : Manuel Goepfert

Contact : metmap@orbifly.com




SOURCES & CREDITS :

   NOAA       Earth
Advisory